createdAt,value
2022-10-19T00:01:09.926Z,35.67
2022-10-19T00:03:38.048Z,35.60
2022-10-19T00:06:15.797Z,35.10
2022-10-19T00:08:43.876Z,35.50
2022-10-19T00:11:12.716Z,34.95
2022-10-19T00:13:40.851Z,35.28
2022-10-19T00:16:11.777Z,34.33
2022-10-19T00:18:40.161Z,35.03
2022-10-19T00:21:09.753Z,34.30
2022-10-19T00:23:39.609Z,35.20
2022-10-19T00:26:08.357Z,35.58
2022-10-19T00:28:36.963Z,37.35
2022-10-19T00:31:05.791Z,36.78
2022-10-19T00:33:34.055Z,38.15
2022-10-19T00:36:01.946Z,35.33
2022-10-19T00:38:30.268Z,35.00
2022-10-19T00:40:59.891Z,33.47
2022-10-19T00:43:31.401Z,34.22
2022-10-19T00:45:59.694Z,34.65
2022-10-19T00:48:32.897Z,35.88
2022-10-19T00:51:01.325Z,35.53
2022-10-19T00:53:31.809Z,35.17
2022-10-19T00:56:04.634Z,35.67
2022-10-19T00:58:33.222Z,35.45
2022-10-19T01:01:04.230Z,36.45
2022-10-19T01:03:32.337Z,34.17
2022-10-19T01:06:01.810Z,35.28
2022-10-19T01:08:29.968Z,33.70
2022-10-19T01:11:14.210Z,34.65
2022-10-19T01:13:48.010Z,33.13
2022-10-19T01:16:20.647Z,34.22
2022-10-19T01:18:56.162Z,33.55
2022-10-19T01:21:26.616Z,32.67
2022-10-19T01:24:25.824Z,32.40
2022-10-19T01:27:38.504Z,31.73
2022-10-19T01:30:14.982Z,32.17
2022-10-19T01:33:05.851Z,32.20
2022-10-19T01:35:40.560Z,32.28
2022-10-19T01:38:20.871Z,31.98
2022-10-19T01:40:57.886Z,31.77
2022-10-19T01:43:34.860Z,31.95
2022-10-19T01:46:11.033Z,31.48
2022-10-19T01:48:43.109Z,31.25
2022-10-19T01:51:15.841Z,31.70
2022-10-19T01:53:48.660Z,32.42
2022-10-19T01:56:21.348Z,33.50
2022-10-19T01:58:50.554Z,33.60
2022-10-19T02:01:23.720Z,33.58
2022-10-19T02:03:53.860Z,35.70
2022-10-19T02:06:22.751Z,34.72
2022-10-19T02:08:53.313Z,34.75
2022-10-19T02:11:23.081Z,35.10
2022-10-19T02:13:55.797Z,35.45
2022-10-19T02:16:31.047Z,34.40
2022-10-19T02:19:01.117Z,33.15
2022-10-19T02:21:29.447Z,35.90
2022-10-19T02:23:57.544Z,35.58
2022-10-19T02:26:25.533Z,33.38
2022-10-19T02:28:55.608Z,39.03
2022-10-19T02:31:25.432Z,42.85
2022-10-19T02:33:53.847Z,71.00
2022-10-19T02:36:23.305Z,177.45
2022-10-19T02:38:51.336Z,329.20
2022-10-19T02:41:24.164Z,261.80
2022-10-19T02:44:00.235Z,228.35
2022-10-19T02:46:35.826Z,139.87
2022-10-19T02:49:05.627Z,260.07
2022-10-19T02:51:35.349Z,200.05
2022-10-19T02:54:05.357Z,235.48
2022-10-19T02:56:34.226Z,180.20
2022-10-19T02:59:02.241Z,113.63
2022-10-19T03:01:31.657Z,112.00
2022-10-19T03:03:59.774Z,162.53
2022-10-19T03:06:27.776Z,90.25
2022-10-19T03:08:55.825Z,71.80
2022-10-19T03:11:23.799Z,79.50
2022-10-19T03:13:51.737Z,56.20
2022-10-19T03:16:19.734Z,37.03
2022-10-19T03:18:50.575Z,39.97
2022-10-19T03:21:19.630Z,35.60
2022-10-19T03:23:47.669Z,30.33
2022-10-19T03:26:17.607Z,30.30
2022-10-19T03:28:45.721Z,33.17
2022-10-19T03:31:13.756Z,31.00
2022-10-19T03:33:41.909Z,32.03
2022-10-19T03:36:21.587Z,30.10
2022-10-19T03:38:51.832Z,25.60
2022-10-19T03:41:20.240Z,27.50
2022-10-19T03:43:48.249Z,26.37
2022-10-19T03:46:16.732Z,25.10
2022-10-19T03:48:45.482Z,24.95
2022-10-19T03:51:15.806Z,26.10
2022-10-19T03:53:45.688Z,24.33
2022-10-19T03:56:15.325Z,28.27
2022-10-19T03:58:44.532Z,25.27
2022-10-19T04:01:14.213Z,25.87
2022-10-19T04:03:42.463Z,25.13
2022-10-19T04:06:16.887Z,24.20
2022-10-19T04:08:50.154Z,25.45
2022-10-19T04:11:20.229Z,25.43
2022-10-19T04:13:50.588Z,25.57
2022-10-19T04:16:19.228Z,25.87
2022-10-19T04:18:47.585Z,25.00
2022-10-19T04:21:22.887Z,25.87
2022-10-19T04:23:54.221Z,26.00
2022-10-19T04:26:22.442Z,25.85
2022-10-19T04:28:50.761Z,26.03
2022-10-19T04:31:18.719Z,25.47
2022-10-19T04:33:48.540Z,26.03
2022-10-19T04:36:16.765Z,25.85
2022-10-19T04:38:44.771Z,24.60
2022-10-19T04:41:15.744Z,25.10
2022-10-19T04:43:45.252Z,25.05
2022-10-19T04:46:15.643Z,27.13
2022-10-19T04:48:44.416Z,25.95
2022-10-19T04:51:12.924Z,25.88
2022-10-19T04:53:42.594Z,24.70
2022-10-19T04:56:15.367Z,25.08
2022-10-19T04:58:43.864Z,24.98
2022-10-19T05:01:13.056Z,23.70
2022-10-19T05:03:42.157Z,25.27
2022-10-19T05:06:10.689Z,25.98
2022-10-19T05:08:39.825Z,25.08
2022-10-19T05:11:10.072Z,24.00
2022-10-19T05:13:39.987Z,25.70
2022-10-19T05:16:10.710Z,25.77
2022-10-19T05:18:38.784Z,25.85
2022-10-19T05:21:08.944Z,26.15
2022-10-19T05:23:37.166Z,25.25
2022-10-19T05:26:07.158Z,25.30
2022-10-19T05:28:36.088Z,25.60
2022-10-19T05:31:10.078Z,26.67
2022-10-19T05:33:38.733Z,26.50
2022-10-19T05:36:15.273Z,26.38
2022-10-19T05:38:44.028Z,27.52
2022-10-19T05:41:12.156Z,25.60
2022-10-19T05:43:41.154Z,24.65
2022-10-19T05:46:12.928Z,24.33
2022-10-19T05:48:41.386Z,25.58
2022-10-19T05:51:12.680Z,24.73
2022-10-19T05:53:41.000Z,24.45
2022-10-19T05:56:13.678Z,26.53
2022-10-19T05:58:42.052Z,26.35
2022-10-19T06:01:12.126Z,24.70
2022-10-19T06:03:40.192Z,25.03
2022-10-19T06:06:09.120Z,25.50
2022-10-19T06:08:37.941Z,25.13
2022-10-19T06:11:07.487Z,24.87
2022-10-19T06:13:35.836Z,24.23
2022-10-19T06:16:03.975Z,24.73
2022-10-19T06:18:33.844Z,24.13
2022-10-19T06:21:04.132Z,25.03
2022-10-19T06:23:32.325Z,25.13
2022-10-19T06:26:00.499Z,25.13
2022-10-19T06:28:28.628Z,25.03
2022-10-19T06:30:58.713Z,24.53
2022-10-19T06:33:27.713Z,23.30
2022-10-19T06:35:59.100Z,24.20
2022-10-19T06:38:27.229Z,23.30
2022-10-19T06:41:00.136Z,24.60
2022-10-19T06:43:28.741Z,24.23
2022-10-19T06:45:57.214Z,24.83
2022-10-19T06:48:25.775Z,24.33
2022-10-19T06:51:06.214Z,24.33
2022-10-19T06:53:35.450Z,26.27
2022-10-19T06:56:05.746Z,22.73
2022-10-19T06:58:36.526Z,23.95
2022-10-19T07:01:06.983Z,23.93
2022-10-19T07:03:35.867Z,23.70
2022-10-19T07:06:07.251Z,24.00
2022-10-19T07:08:37.385Z,23.70
2022-10-19T07:11:08.656Z,23.55
2022-10-19T07:13:37.154Z,23.67
2022-10-19T07:16:07.419Z,23.88
2022-10-19T07:18:36.894Z,23.88
2022-10-19T07:21:08.660Z,24.60
2022-10-19T07:23:38.264Z,25.10
2022-10-19T07:26:07.693Z,27.48
2022-10-19T07:28:36.334Z,24.15
2022-10-19T07:31:09.676Z,23.33
2022-10-19T07:33:37.923Z,24.05
2022-10-19T07:36:09.503Z,24.67
2022-10-19T07:38:38.468Z,26.08
2022-10-19T07:41:08.919Z,25.27
2022-10-19T07:43:37.357Z,26.77
2022-10-19T07:46:07.218Z,24.50
2022-10-19T07:48:36.158Z,24.92
2022-10-19T07:51:06.036Z,25.13
2022-10-19T07:53:36.766Z,25.02
2022-10-19T07:56:06.379Z,24.38
2022-10-19T07:58:35.463Z,22.83
2022-10-19T08:01:04.566Z,23.80
2022-10-19T08:06:20.793Z,23.58
2022-10-19T08:08:50.467Z,24.77
2022-10-19T08:11:20.702Z,22.75
2022-10-19T08:13:48.994Z,23.77
2022-10-19T08:16:25.829Z,21.88
2022-10-19T08:18:56.860Z,22.95
2022-10-19T08:21:25.091Z,22.90
2022-10-19T08:23:54.937Z,20.05
2022-10-19T08:26:23.262Z,20.50
2022-10-19T08:28:51.134Z,22.92
2022-10-19T08:31:21.249Z,21.02
2022-10-19T08:33:51.261Z,20.88
2022-10-19T08:36:20.229Z,20.95
2022-10-19T08:38:49.379Z,20.05
2022-10-19T08:41:25.860Z,18.73
2022-10-19T08:44:15.950Z,19.17
2022-10-19T08:46:53.322Z,19.50
2022-10-19T08:49:24.651Z,17.90
2022-10-19T08:51:58.583Z,17.15
2022-10-19T08:54:33.521Z,17.05
2022-10-19T08:57:12.809Z,15.13
2022-10-19T08:59:48.676Z,15.30
2022-10-19T09:02:22.800Z,16.00
2022-10-19T09:04:59.255Z,18.23
2022-10-19T09:07:31.030Z,18.70
2022-10-19T09:10:02.304Z,17.40
2022-10-19T09:12:41.118Z,15.57
2022-10-19T09:15:14.122Z,15.95
2022-10-19T09:17:42.038Z,15.40
2022-10-19T09:20:19.371Z,16.80
2022-10-19T09:22:50.291Z,16.92
2022-10-19T09:25:22.426Z,19.63
2022-10-19T09:28:03.492Z,17.10
2022-10-19T09:30:38.330Z,16.10
2022-10-19T09:33:15.158Z,17.05
2022-10-19T09:35:46.189Z,16.77
2022-10-19T09:38:17.701Z,18.52
2022-10-19T09:40:45.690Z,14.75
2022-10-19T09:43:22.002Z,16.27
2022-10-19T09:45:54.121Z,15.18
2022-10-19T09:48:29.972Z,14.70
2022-10-19T09:51:00.321Z,14.52
2022-10-19T09:53:29.296Z,14.02
2022-10-19T09:56:04.858Z,16.58
2022-10-19T09:58:35.133Z,16.67
2022-10-19T10:01:04.071Z,15.65
2022-10-19T10:03:35.120Z,15.40
2022-10-19T10:06:07.544Z,14.00
2022-10-19T10:08:38.770Z,12.90
2022-10-19T10:11:11.577Z,14.93
2022-10-19T10:13:43.578Z,12.70
2022-10-19T10:16:15.030Z,13.43
2022-10-19T10:18:54.262Z,13.57
2022-10-19T10:21:25.795Z,14.52
2022-10-19T10:24:03.600Z,13.23
2022-10-19T10:26:31.810Z,11.82
2022-10-19T10:29:01.789Z,11.82
2022-10-19T10:31:31.524Z,13.27
2022-10-19T10:34:10.849Z,13.13
2022-10-19T10:36:52.478Z,12.80
2022-10-19T10:39:21.482Z,12.75
2022-10-19T10:41:50.518Z,11.25
2022-10-19T10:44:23.036Z,12.38
2022-10-19T12:58:01.992Z,10.70
2022-10-19T13:00:33.373Z,9.40
2022-10-19T13:03:05.708Z,8.75
2022-10-19T13:05:34.951Z,10.00
2022-10-19T13:08:07.970Z,6.57
2022-10-19T13:10:38.951Z,8.40
2022-10-19T13:13:46.147Z,8.77
2022-10-19T13:16:49.808Z,9.27
2022-10-19T13:19:22.697Z,8.30
2022-10-19T13:22:00.604Z,6.70
2022-10-19T13:24:35.783Z,8.18
2022-10-19T13:27:26.380Z,6.68
2022-10-19T13:29:55.837Z,4.43
2022-10-19T13:32:37.237Z,8.02
2022-10-19T13:35:34.752Z,6.70
2022-10-19T13:38:32.965Z,8.30
2022-10-19T13:41:07.911Z,8.40
2022-10-19T13:43:40.783Z,11.10
2022-10-19T13:46:15.752Z,6.78
2022-10-19T13:49:19.490Z,9.02
2022-10-19T13:52:04.177Z,6.55
2022-10-19T13:54:53.286Z,7.80
2022-10-19T13:57:30.730Z,9.20
2022-10-19T14:00:16.367Z,10.80
2022-10-19T14:03:12.283Z,11.35
2022-10-19T14:05:54.469Z,7.45
2022-10-19T14:08:49.100Z,6.40
2022-10-19T14:11:20.281Z,5.63
2022-10-19T14:14:10.117Z,8.05
2022-10-19T14:16:47.430Z,10.85
2022-10-19T14:19:26.938Z,8.48
2022-10-19T14:21:57.539Z,8.50
2022-10-19T14:24:31.039Z,6.85
2022-10-19T14:27:03.521Z,8.80
2022-10-19T14:29:35.340Z,5.47
2022-10-19T14:32:04.628Z,9.63
2022-10-19T14:34:34.152Z,5.68
2022-10-19T14:37:02.192Z,5.47
2022-10-19T14:39:33.466Z,7.63
2022-10-19T14:42:05.905Z,5.65
2022-10-19T14:44:40.143Z,6.05
2022-10-19T14:47:18.530Z,9.15
2022-10-19T14:49:48.027Z,9.30
2022-10-19T14:52:21.071Z,5.25
2022-10-19T14:54:52.353Z,5.22
2022-10-19T14:57:26.123Z,4.90
2022-10-19T14:59:56.865Z,7.18
2022-10-19T15:02:28.879Z,9.80
2022-10-19T15:05:01.198Z,11.38
2022-10-19T15:07:36.717Z,6.00
2022-10-19T15:10:08.931Z,8.55
2022-10-19T15:12:50.165Z,7.22
2022-10-19T15:15:23.585Z,5.13
2022-10-19T15:17:53.717Z,5.70
2022-10-19T15:20:29.132Z,6.35
2022-10-19T15:22:57.798Z,5.75
2022-10-19T15:25:30.082Z,5.05
2022-10-19T15:27:58.813Z,9.30
2022-10-19T15:30:29.662Z,9.05
2022-10-19T15:33:11.446Z,6.72
2022-10-19T15:35:43.953Z,7.38
2022-10-19T15:38:20.260Z,9.60
2022-10-19T15:40:49.354Z,10.27
2022-10-19T15:43:39.416Z,7.72
2022-10-19T15:46:20.910Z,8.40
2022-10-19T15:48:52.514Z,6.07
2022-10-19T15:51:46.230Z,5.82
2022-10-19T15:54:17.345Z,8.15
2022-10-19T15:56:47.637Z,8.73
2022-10-19T15:59:18.566Z,6.25
2022-10-19T16:01:52.521Z,9.55
2022-10-19T16:04:23.090Z,7.45
2022-10-19T16:06:53.293Z,8.68
2022-10-19T16:09:22.857Z,6.93
2022-10-19T16:11:56.485Z,10.18
2022-10-19T16:14:26.615Z,6.97
2022-10-19T16:16:55.708Z,11.70
2022-10-19T16:22:08.380Z,12.35
2022-10-19T16:24:37.081Z,6.40
2022-10-19T16:27:05.362Z,8.35
2022-10-19T16:29:33.457Z,11.07
2022-10-19T16:32:01.550Z,11.85
2022-10-19T16:34:29.699Z,9.77
2022-10-19T16:37:00.359Z,8.15
2022-10-19T16:39:30.888Z,10.20
2022-10-19T16:41:59.084Z,9.23
2022-10-19T16:44:27.014Z,10.25
2022-10-19T16:46:57.619Z,9.38
2022-10-19T16:49:26.065Z,12.15
2022-10-19T16:51:57.269Z,14.10
2022-10-19T16:54:26.956Z,9.55
2022-10-19T16:56:56.634Z,11.05
2022-10-19T16:59:24.624Z,9.00
2022-10-19T17:01:53.706Z,7.35
2022-10-19T17:04:21.946Z,9.80
2022-10-19T17:06:49.942Z,8.82
2022-10-19T17:12:08.293Z,12.52
2022-10-19T17:14:36.906Z,10.93
2022-10-19T17:17:04.904Z,10.48
2022-10-19T17:19:33.579Z,9.30
2022-10-19T17:22:02.932Z,9.23
2022-10-19T17:24:30.948Z,11.95
2022-10-19T17:27:01.998Z,9.25
2022-10-19T17:29:31.508Z,11.25
2022-10-19T17:32:00.283Z,11.40
2022-10-19T17:34:28.392Z,10.45
2022-10-19T17:36:56.586Z,10.43
2022-10-19T17:39:29.085Z,11.15
2022-10-19T17:42:01.492Z,10.43
2022-10-19T17:44:31.987Z,11.38
2022-10-19T17:47:01.373Z,10.18
2022-10-19T17:49:29.844Z,10.20
2022-10-19T17:51:58.632Z,13.77
2022-10-19T17:54:26.728Z,12.43
2022-10-19T17:56:54.825Z,14.02
2022-10-19T17:59:34.639Z,12.38
2022-10-19T18:02:11.214Z,14.38
2022-10-19T18:04:39.412Z,15.00
2022-10-19T18:07:07.622Z,16.23
2022-10-19T18:09:35.645Z,18.52
2022-10-19T18:12:04.918Z,17.48
2022-10-19T18:14:35.108Z,17.83
2022-10-19T18:17:03.048Z,18.77
2022-10-19T18:19:32.654Z,20.52
2022-10-19T18:22:00.728Z,21.50
2022-10-19T18:24:29.045Z,20.05
2022-10-19T18:26:57.240Z,22.73
2022-10-19T18:29:27.433Z,22.85
2022-10-19T18:31:55.746Z,24.08
2022-10-19T18:34:25.617Z,24.35
2022-10-19T18:36:55.740Z,25.33
2022-10-19T18:39:24.236Z,25.83
2022-10-19T18:41:54.436Z,27.38
2022-10-19T18:44:26.318Z,24.30
2022-10-19T18:46:55.543Z,27.42
2022-10-19T18:49:24.042Z,25.00
2022-10-19T18:51:58.762Z,27.13
2022-10-19T18:54:28.071Z,29.02
2022-10-19T18:56:56.707Z,27.73
2022-10-19T18:59:24.881Z,28.23
2022-10-19T19:01:53.010Z,29.30
2022-10-19T19:04:21.007Z,29.35
2022-10-19T19:06:49.070Z,28.35
2022-10-19T19:09:18.932Z,29.65
2022-10-19T19:11:46.980Z,31.25
2022-10-19T19:14:16.712Z,30.48
2022-10-19T19:16:46.349Z,30.88
2022-10-19T19:19:16.723Z,31.70
2022-10-19T19:21:45.208Z,32.33
2022-10-19T19:24:15.440Z,30.35
2022-10-19T19:26:48.346Z,31.65
2022-10-19T19:29:16.543Z,32.22
2022-10-19T19:31:44.537Z,30.80
2022-10-19T19:34:12.801Z,31.90
2022-10-19T19:36:47.285Z,31.77
2022-10-19T19:39:16.383Z,30.13
2022-10-19T19:41:46.099Z,30.75
2022-10-19T19:44:14.061Z,32.90
2022-10-19T19:46:42.203Z,32.63
2022-10-19T19:49:10.263Z,31.65
2022-10-19T19:51:38.371Z,33.05
2022-10-19T19:54:06.647Z,33.67
2022-10-19T19:56:34.775Z,33.25
2022-10-19T19:59:04.532Z,34.25
2022-10-19T20:01:33.262Z,33.30
2022-10-19T20:06:30.566Z,34.00
2022-10-19T20:08:58.866Z,35.28
2022-10-19T20:11:29.658Z,32.88
2022-10-19T20:13:58.091Z,34.15
2022-10-19T20:16:29.791Z,35.75
2022-10-19T20:19:01.750Z,34.70
2022-10-19T20:21:31.681Z,35.63
2022-10-19T20:24:00.176Z,35.92
2022-10-19T20:26:28.933Z,34.83
2022-10-19T20:28:57.800Z,32.45
2022-10-19T20:33:56.816Z,33.33
2022-10-19T20:36:26.656Z,34.08
2022-10-19T20:38:56.408Z,32.95
2022-10-19T20:41:27.878Z,32.45
2022-10-19T20:43:56.556Z,34.20
2022-10-19T20:46:28.051Z,33.80
2022-10-19T20:48:57.955Z,35.40
2022-10-19T20:51:30.981Z,34.63
2022-10-19T20:54:01.255Z,34.97
2022-10-19T20:56:31.177Z,34.78
2022-10-19T20:59:01.092Z,34.28
2022-10-19T21:01:32.203Z,35.55
2022-10-19T21:04:03.308Z,34.35
2022-10-19T21:06:33.301Z,34.47
2022-10-19T21:09:01.511Z,34.88
2022-10-19T21:11:31.865Z,35.35
2022-10-19T21:14:02.540Z,34.85
2022-10-19T21:16:34.046Z,36.53
2022-10-19T21:19:02.813Z,34.50
2022-10-19T21:21:33.040Z,35.45
2022-10-19T21:24:04.552Z,36.70
2022-10-19T21:26:34.374Z,37.28
2022-10-19T21:29:03.384Z,36.60
2022-10-19T21:31:32.927Z,36.97
2022-10-19T21:34:04.732Z,37.22
2022-10-19T21:36:32.685Z,37.38
2022-10-19T21:39:00.614Z,37.17
2022-10-19T21:41:28.954Z,37.08
2022-10-19T21:43:59.970Z,35.80
2022-10-19T21:46:27.977Z,35.80
2022-10-19T21:48:57.655Z,36.28
2022-10-19T21:51:34.400Z,35.38
2022-10-19T21:54:02.936Z,37.45
2022-10-19T21:56:31.416Z,37.58
2022-10-19T21:59:00.305Z,36.05
2022-10-19T22:01:30.275Z,36.97
2022-10-19T22:04:01.065Z,36.72
2022-10-19T22:06:30.219Z,38.83
2022-10-19T22:08:58.953Z,37.95
2022-10-19T22:11:27.662Z,37.42
2022-10-19T22:13:56.836Z,37.60
2022-10-19T22:16:38.505Z,37.60
2022-10-19T22:19:18.564Z,39.13
2022-10-19T22:21:46.761Z,39.00
2022-10-19T22:24:16.045Z,37.95
2022-10-19T22:26:46.064Z,38.22
2022-10-19T22:29:14.338Z,38.38
2022-10-19T22:31:42.939Z,38.45
2022-10-19T22:34:13.862Z,39.35
2022-10-19T22:36:42.015Z,38.35
2022-10-19T22:39:11.075Z,38.92
2022-10-19T22:42:07.407Z,39.42
2022-10-19T22:44:35.817Z,39.00
2022-10-19T22:47:03.917Z,40.63
2022-10-19T22:49:34.461Z,40.67
2022-10-19T22:52:03.178Z,39.33
2022-10-19T22:54:33.578Z,41.42
2022-10-19T22:57:01.969Z,41.40
2022-10-19T22:59:30.307Z,40.38
2022-10-19T23:01:59.083Z,41.75
2022-10-19T23:04:27.520Z,39.65
2022-10-19T23:06:57.667Z,39.55
2022-10-19T23:09:26.026Z,39.00
2022-10-19T23:11:54.339Z,40.67
2022-10-19T23:14:22.989Z,41.38
2022-10-19T23:16:53.522Z,40.63
2022-10-19T23:19:22.010Z,40.30
2022-10-19T23:21:50.142Z,40.85
2022-10-19T23:24:19.923Z,39.38
2022-10-19T23:26:48.239Z,41.50
2022-10-19T23:29:16.841Z,40.30
2022-10-19T23:31:44.957Z,41.63
2022-10-19T23:34:13.566Z,40.00
2022-10-19T23:36:44.508Z,40.55
2022-10-19T23:39:13.063Z,41.55
2022-10-19T23:41:43.917Z,41.40
2022-10-19T23:44:12.519Z,41.50
2022-10-19T23:46:40.636Z,41.83
2022-10-19T23:49:08.846Z,41.50
2022-10-19T23:51:36.867Z,42.92
2022-10-19T23:54:05.019Z,40.55
2022-10-19T23:56:33.139Z,43.03
2022-10-19T23:59:02.824Z,41.88
